Time;durP1;ratioP1;P1;durP2;ratioP2;P2;SDS_P1;SDS_P2;PMS_P1;PMS_P2;Temp;Humidity;BMP_temperature;BMP_pressure;BME280_temperature;BME280_humidity;BME280_pressure;Samples;Min_cycle;Max_cycle;Signal;HPM_P1;HPM_P2
2024/05/03 00:01:07;;;;;;;29.65;23.73;;;17.10;99.90;;;;;;5373071;26;20019;-77
2024/05/03 00:03:52;;;;;;;33.63;25.83;;;17.10;99.90;;;;;;5376694;26;20085;-78
2024/05/03 00:06:40;;;;;;;;;;;17.20;99.90;;;;;;5364389;26;20087;-79
2024/05/03 00:09:28;;;;;;;33.92;25.73;;;17.10;99.90;;;;;;5363590;26;19941;-79
2024/05/03 00:12:13;;;;;;;35.08;25.38;;;17.10;99.90;;;;;;5359980;26;20015;-79
2024/05/03 00:14:58;;;;;;;34.58;25.00;;;17.10;99.90;;;;;;5369112;26;20418;-78
2024/05/03 00:17:43;;;;;;;32.55;25.02;;;17.10;99.90;;;;;;5363183;26;20078;-79
2024/05/03 00:20:28;;;;;;;35.58;26.60;;;17.10;99.90;;;;;;5359929;26;20079;-79
2024/05/03 00:23:15;;;;;;;34.78;26.75;;;17.10;99.90;;;;;;5370341;26;20086;-79
2024/05/03 00:26:02;;;;;;;35.85;26.27;;;17.10;99.90;;;;;;5363454;26;20015;-79
2024/05/03 00:28:47;;;;;;;35.85;26.00;;;17.00;99.90;;;;;;5361859;26;20428;-79
2024/05/03 00:31:32;;;;;;;35.85;26.85;;;16.90;99.90;;;;;;5366911;26;20019;-79
2024/05/03 00:34:17;;;;;;;35.13;26.30;;;16.80;99.90;;;;;;5371717;26;20475;-79
2024/05/03 00:37:02;;;;;;;35.03;26.25;;;16.80;99.90;;;;;;5371234;26;20456;-79
2024/05/03 00:39:49;;;;;;;34.80;26.10;;;16.80;99.90;;;;;;5365410;26;20072;-79
2024/05/03 00:42:34;;;;;;;38.33;28.90;;;16.80;99.90;;;;;;5353682;26;20020;-79
2024/05/03 00:45:19;;;;;;;40.22;28.63;;;16.80;99.90;;;;;;5356486;26;20019;-79
2024/05/03 00:48:05;;;;;;;39.15;29.95;;;16.70;99.90;;;;;;5370706;26;20068;-79
2024/05/03 00:50:50;;;;;;;45.03;30.77;;;16.70;99.90;;;;;;5364590;26;20156;-79
2024/05/03 00:53:38;;;;;;;43.95;30.65;;;16.70;99.90;;;;;;5375922;26;20023;-79
2024/05/03 00:56:27;;;;;;;39.22;29.27;;;16.70;99.90;;;;;;5367500;26;20110;-79
2024/05/03 00:59:13;;;;;;;40.78;30.45;;;16.60;99.90;;;;;;5359038;26;20038;-79
2024/05/03 01:01:58;;;;;;;43.47;30.15;;;16.50;99.90;;;;;;5374255;26;20014;-79
2024/05/03 01:04:43;;;;;;;;;;;16.50;99.90;;;;;;5377853;26;20476;-79
2024/05/03 01:07:28;;;;;;;40.90;30.58;;;16.60;99.90;;;;;;5375628;26;19932;-79
2024/05/03 01:10:13;;;;;;;45.53;31.63;;;16.50;99.90;;;;;;5358973;26;20471;-79
2024/05/03 01:13:03;;;;;;;42.22;31.65;;;16.50;99.90;;;;;;5375009;26;20495;-79
2024/05/03 01:15:48;;;;;;;44.60;31.15;;;16.50;99.90;;;;;;5361059;26;20502;-79
2024/05/03 01:18:33;;;;;;;46.45;32.22;;;16.40;99.90;;;;;;5374042;26;20078;-78
2024/05/03 01:21:18;;;;;;;42.72;30.77;;;16.50;99.90;;;;;;5344544;26;20016;-78
2024/05/03 01:24:06;;;;;;;43.72;31.30;;;16.60;99.90;;;;;;5346102;26;20020;-78
2024/05/03 01:26:51;;;;;;;41.03;31.10;;;16.60;99.90;;;;;;5349407;26;20019;-79
2024/05/03 01:29:36;;;;;;;44.03;31.65;;;16.60;99.90;;;;;;5364314;26;20086;-78
2024/05/03 01:32:22;;;;;;;44.67;31.00;;;16.60;99.90;;;;;;5348830;26;20025;-79
2024/05/03 01:35:07;;;;;;;40.92;30.25;;;16.60;99.90;;;;;;5369872;26;20048;-79
2024/05/03 01:37:51;;;;;;;43.92;31.13;;;16.60;99.90;;;;;;5366153;26;20030;-79
2024/05/03 01:40:39;;;;;;;43.08;31.15;;;16.50;99.90;;;;;;5373092;26;20054;-78
2024/05/03 01:43:24;;;;;;;42.28;31.45;;;16.50;99.90;;;;;;5368219;26;20019;-79
2024/05/03 01:46:09;;;;;;;44.42;32.47;;;16.50;99.90;;;;;;5366209;26;20090;-78
2024/05/03 01:48:54;;;;;;;42.20;30.90;;;16.50;99.90;;;;;;5363595;26;20044;-81
2024/05/03 01:51:39;;;;;;;47.53;34.00;;;16.50;99.90;;;;;;5361125;26;20016;-79
2024/05/03 01:54:26;;;;;;;44.90;32.28;;;16.50;99.90;;;;;;5361358;26;20019;-77
2024/05/03 01:57:13;;;;;;;47.55;33.35;;;16.50;99.90;;;;;;5365500;26;20086;-79
2024/05/03 01:59:58;;;;;;;49.92;34.72;;;16.50;99.90;;;;;;5366547;26;20086;-79
2024/05/03 02:02:45;;;;;;;48.25;33.72;;;16.50;99.90;;;;;;5365985;26;20386;-79
2024/05/03 02:05:30;;;;;;;47.70;33.22;;;16.40;99.90;;;;;;5362537;26;20023;-80
2024/05/03 02:08:15;;;;;;;49.38;34.75;;;16.50;99.90;;;;;;5368671;26;20444;-79
2024/05/03 02:11:00;;;;;;;52.05;34.65;;;16.40;99.90;;;;;;5361067;26;20557;-79
2024/05/03 02:13:48;;;;;;;49.47;34.33;;;16.40;99.90;;;;;;5356599;26;20527;-80
2024/05/03 02:16:33;;;;;;;47.60;33.30;;;16.30;99.90;;;;;;5373024;26;20019;-80
2024/05/03 02:19:18;;;;;;;48.38;35.10;;;16.30;99.90;;;;;;5367219;26;20026;-78
2024/05/03 02:22:04;;;;;;;51.67;34.22;;;16.30;99.90;;;;;;5360852;26;20527;-78
2024/05/03 02:24:49;;;;;;;52.15;35.60;;;16.20;99.90;;;;;;5362717;26;20518;-80
2024/05/03 02:27:33;;;;;;;52.60;36.38;;;16.20;99.90;;;;;;5365861;26;20023;-78
2024/05/03 02:30:21;;;;;;;52.10;35.42;;;16.20;99.90;;;;;;5359314;26;20031;-79
2024/05/03 02:33:06;;;;;;;51.60;34.53;;;16.20;99.90;;;;;;5364602;26;20049;-79
2024/05/03 02:35:51;;;;;;;53.60;36.25;;;16.10;99.90;;;;;;5366641;26;20007;-80
2024/05/03 02:38:36;;;;;;;53.00;35.45;;;16.20;99.90;;;;;;5371789;26;20023;-80
2024/05/03 02:41:20;;;;;;;47.33;34.88;;;16.20;99.90;;;;;;5368611;26;20023;-79
2024/05/03 02:44:06;;;;;;;;;;;16.20;99.90;;;;;;5367224;26;20018;-79
2024/05/03 02:46:54;;;;;;;51.75;35.85;;;16.20;99.90;;;;;;5363745;26;19941;-79
2024/05/03 02:49:39;;;;;;;55.47;36.97;;;16.20;99.90;;;;;;5364440;26;20018;-79
2024/05/03 02:52:24;;;;;;;53.05;35.17;;;16.20;99.90;;;;;;5369703;26;20028;-79
2024/05/03 02:55:09;;;;;;;50.60;35.08;;;16.20;99.90;;;;;;5362076;26;20087;-78
2024/05/03 02:57:56;;;;;;;54.28;36.17;;;16.20;99.90;;;;;;5364378;26;20019;-80
2024/05/03 03:00:41;;;;;;;50.72;35.03;;;16.10;99.90;;;;;;5365020;26;20093;-79
2024/05/03 03:03:28;;;;;;;56.63;36.67;;;16.10;99.90;;;;;;5363351;26;20011;-80
2024/05/03 03:06:14;;;;;;;53.60;35.67;;;16.10;99.90;;;;;;5360335;26;20019;-80
2024/05/03 03:08:59;;;;;;;57.33;37.10;;;16.10;99.90;;;;;;5371561;26;20023;-80
2024/05/03 03:11:44;;;;;;;52.70;35.80;;;16.10;99.90;;;;;;5358952;26;20081;-79
2024/05/03 03:14:29;;;;;;;;;;;16.10;99.90;;;;;;5359663;26;20476;-78
2024/05/03 03:17:14;;;;;;;58.88;37.60;;;16.00;99.90;;;;;;5366542;26;19932;-78
2024/05/03 03:20:03;;;;;;;59.05;37.38;;;15.90;99.90;;;;;;5371949;26;20081;-79
2024/05/03 03:22:47;;;;;;;61.30;39.22;;;15.90;99.90;;;;;;5358366;26;20018;-79
2024/05/03 03:25:32;;;;;;;57.50;38.70;;;15.90;99.90;;;;;;5366326;26;20059;-79
2024/05/03 03:28:17;;;;;;;58.40;37.75;;;15.90;99.90;;;;;;5358506;26;20019;-79
2024/05/03 03:31:03;;;;;;;58.35;37.42;;;15.90;99.90;;;;;;5364787;26;21143;-80
2024/05/03 03:33:48;;;;;;;59.83;37.42;;;15.90;99.90;;;;;;5363629;26;20020;-80
2024/05/03 03:36:36;;;;;;;57.58;38.03;;;15.90;99.90;;;;;;5366801;26;20045;-80
2024/05/03 03:39:21;;;;;;;55.03;35.65;;;15.90;99.90;;;;;;5352705;26;20360;-79
2024/05/03 03:42:06;;;;;;;57.40;35.25;;;16.00;99.90;;;;;;5366742;26;20019;-79
2024/05/03 03:44:51;;;;;;;57.42;36.83;;;16.00;99.90;;;;;;5352513;26;20082;-79
2024/05/03 03:47:40;;;;;;;56.85;36.78;;;16.00;99.90;;;;;;5365058;26;20019;-79
2024/05/03 03:50:25;;;;;;;60.60;37.03;;;15.90;99.90;;;;;;5361778;26;20031;-79
2024/05/03 03:53:12;;;;;;;57.97;37.00;;;15.90;99.90;;;;;;5356707;26;20011;-79
2024/05/03 03:55:57;;;;;;;60.03;37.85;;;15.90;99.90;;;;;;5362563;26;20019;-79
2024/05/03 03:58:42;;;;;;;58.63;37.58;;;15.80;99.90;;;;;;5366769;26;20015;-79
2024/05/03 04:01:28;;;;;;;62.60;36.42;;;15.90;99.90;;;;;;5361226;26;20027;-79
2024/05/03 04:04:12;;;;;;;62.20;37.05;;;15.80;99.90;;;;;;5363096;26;20023;-80
2024/05/03 04:06:57;;;;;;;64.82;38.85;;;15.80;99.90;;;;;;5362317;26;20015;-79
2024/05/03 04:09:45;;;;;;;66.00;39.60;;;15.60;99.90;;;;;;5356188;26;20086;-79
2024/05/03 04:12:30;;;;;;;62.97;39.28;;;15.50;99.90;;;;;;5356705;26;20381;-79
2024/05/03 04:15:15;;;;;;;69.78;39.50;;;15.50;99.90;;;;;;5358789;26;20123;-79
2024/05/03 04:18:00;;;;;;;64.50;39.53;;;15.60;99.90;;;;;;5361091;26;20083;-79
2024/05/03 04:20:45;;;;;;;68.43;40.30;;;15.60;99.90;;;;;;5360567;26;20095;-80
2024/05/03 04:23:30;;;;;;;67.78;40.17;;;15.50;99.90;;;;;;5358163;26;20085;-79
2024/05/03 04:26:18;;;;;;;72.13;40.83;;;15.60;99.90;;;;;;5355664;26;20019;-79
2024/05/03 04:29:03;;;;;;;64.75;39.83;;;15.50;99.90;;;;;;5368616;26;20113;-79
2024/05/03 04:31:48;;;;;;;62.35;39.15;;;15.50;99.90;;;;;;5362132;26;20015;-79
2024/05/03 04:34:33;;;;;;;71.15;40.25;;;15.50;99.90;;;;;;5362268;26;20015;-80
2024/05/03 04:37:18;;;;;;;67.40;39.53;;;15.40;99.90;;;;;;5361958;26;20489;-79
2024/05/03 04:40:04;;;;;;;67.68;38.83;;;15.50;99.90;;;;;;5365534;26;20463;-79
2024/05/03 04:42:52;;;;;;;66.03;38.30;;;15.50;99.90;;;;;;5360723;26;20360;-79
2024/05/03 04:45:37;;;;;;;67.43;40.30;;;15.50;99.90;;;;;;5365911;26;20027;-79
2024/05/03 04:48:22;;;;;;;67.00;39.25;;;15.50;99.90;;;;;;5361490;26;20054;-79
2024/05/03 04:51:06;;;;;;;60.92;37.63;;;15.50;99.90;;;;;;5367150;26;20085;-79
2024/05/03 04:53:51;;;;;;;67.15;38.63;;;15.60;99.90;;;;;;5366862;26;20027;-79
2024/05/03 04:56:36;;;;;;;65.05;39.95;;;15.50;99.90;;;;;;5361144;26;20354;-79
2024/05/03 04:59:26;;;;;;;69.18;39.67;;;15.60;99.90;;;;;;5348449;26;20892;-79
2024/05/03 05:02:11;;;;;;;71.88;39.47;;;15.60;99.90;;;;;;5340963;26;20103;-79
2024/05/03 05:04:56;;;;;;;71.65;40.70;;;15.50;99.90;;;;;;5351365;26;20015;-79
2024/05/03 05:07:41;;;;;;;69.85;39.97;;;15.50;99.90;;;;;;5352932;26;20011;-79
2024/05/03 05:10:26;;;;;;;67.65;38.83;;;15.60;99.90;;;;;;5363604;26;20081;-79
2024/05/03 05:13:11;;;;;;;67.57;39.28;;;15.60;99.90;;;;;;5351135;26;20015;-79
2024/05/03 05:15:59;;;;;;;72.57;40.78;;;15.60;99.90;;;;;;5361742;26;20073;-79
2024/05/03 05:18:44;;;;;;;62.92;39.17;;;15.60;99.90;;;;;;5356578;26;20015;-79
2024/05/03 05:24:33;;;;;;;62.10;34.47;;;15.50;99.90;;;;;;5349923;26;20012;-79
2024/05/03 05:27:19;;;;;;;59.42;34.22;;;15.40;99.90;;;;;;5357258;26;20019;-79
2024/05/03 05:30:05;;;;;;;55.85;33.60;;;15.30;99.90;;;;;;5347234;26;20019;-79
2024/05/03 05:32:53;;;;;;;52.00;30.63;;;15.20;99.90;;;;;;5361451;26;20012;-79
2024/05/03 05:35:37;;;;;;;51.25;29.73;;;15.10;99.90;;;;;;5362937;26;20946;-80
2024/05/03 05:38:22;;;;;;;46.28;28.83;;;15.00;99.90;;;;;;5352356;26;20019;-79
2024/05/03 05:41:07;;;;;;;39.65;25.98;;;15.00;99.90;;;;;;5356582;26;20562;-80
2024/05/03 05:43:52;;;;;;;38.45;25.50;;;14.90;99.90;;;;;;5368389;26;20014;-79
2024/05/03 05:46:37;;;;;;;38.88;25.00;;;14.80;99.90;;;;;;5359458;26;20081;-80
2024/05/03 05:49:25;;;;;;;;;;;14.80;99.90;;;;;;5365203;26;20067;-80
2024/05/03 05:52:10;;;;;;;30.42;21.38;;;14.70;99.90;;;;;;5361214;26;19933;-80
2024/05/03 05:54:55;;;;;;;31.38;21.23;;;14.70;99.90;;;;;;5355980;26;20648;-80
2024/05/03 05:57:40;;;;;;;33.72;22.80;;;14.60;99.90;;;;;;5366035;26;20073;-80
2024/05/03 06:00:27;;;;;;;31.85;21.48;;;14.60;99.90;;;;;;5369458;26;20041;-80
2024/05/03 06:03:12;;;;;;;27.73;19.88;;;14.60;99.90;;;;;;5355493;26;20480;-80
2024/05/03 06:06:02;;;;;;;27.95;18.98;;;14.70;99.90;;;;;;5369150;26;20023;-80
2024/05/03 06:08:48;;;;;;;22.00;15.88;;;14.70;99.90;;;;;;5349907;26;20081;-80
2024/05/03 06:11:33;;;;;;;16.67;12.60;;;14.70;99.90;;;;;;5368439;26;20077;-80
2024/05/03 06:14:18;;;;;;;16.30;12.63;;;14.60;99.90;;;;;;5352046;26;20090;-80
2024/05/03 06:17:03;;;;;;;16.05;12.18;;;14.50;99.90;;;;;;5353196;26;20085;-80
2024/05/03 06:19:48;;;;;;;17.17;12.90;;;14.50;99.90;;;;;;5360464;26;20022;-80
2024/05/03 06:22:36;;;;;;;16.13;12.02;;;14.50;99.90;;;;;;5344195;26;20045;-80
2024/05/03 06:25:20;;;;;;;15.95;11.68;;;14.40;99.90;;;;;;5346016;26;20015;-80
2024/05/03 06:28:06;;;;;;;15.05;11.45;;;14.40;99.90;;;;;;5346123;26;20464;-80
2024/05/03 06:30:50;;;;;;;;;;;14.30;99.90;;;;;;5343862;26;20087;-81
2024/05/03 06:33:36;;;;;;;16.20;11.65;;;14.30;99.90;;;;;;5348754;26;20000;-81
2024/05/03 06:36:22;;;;;;;13.85;10.45;;;14.30;99.90;;;;;;5371210;26;20097;-79
2024/05/03 06:39:10;;;;;;;13.93;10.40;;;14.20;99.90;;;;;;5346641;26;20468;-79
2024/05/03 06:41:55;;;;;;;13.32;9.45;;;14.10;99.90;;;;;;5343324;26;20494;-78
2024/05/03 06:44:40;;;;;;;13.73;9.82;;;14.20;99.90;;;;;;5376243;26;20022;-78
2024/05/03 06:47:25;;;;;;;13.77;9.30;;;14.20;99.90;;;;;;5363306;26;20057;-79
2024/05/03 06:50:10;;;;;;;14.25;9.40;;;14.20;99.90;;;;;;5358984;26;20377;-78
2024/05/03 06:52:57;;;;;;;11.73;9.20;;;14.30;99.90;;;;;;5354798;26;20019;-78
2024/05/03 06:55:45;;;;;;;12.35;8.48;;;14.40;99.90;;;;;;5345654;26;20055;-79
2024/05/03 06:58:30;;;;;;;12.32;8.32;;;14.40;99.90;;;;;;5345539;26;20018;-80
2024/05/03 07:01:15;;;;;;;10.52;7.30;;;14.30;99.90;;;;;;5347593;26;20019;-79
2024/05/03 07:04:00;;;;;;;10.90;7.03;;;14.30;99.90;;;;;;5365475;26;20386;-79
2024/05/03 07:06:46;;;;;;;9.05;6.53;;;14.30;99.90;;;;;;5355680;26;20015;-80
2024/05/03 07:09:31;;;;;;;9.48;6.22;;;14.30;99.90;;;;;;5371594;26;20018;-83
2024/05/03 07:12:19;;;;;;;9.18;6.13;;;14.20;99.90;;;;;;5357925;26;20124;-77
2024/05/03 07:15:05;;;;;;;9.65;6.10;;;14.20;99.90;;;;;;5374794;26;20082;-82
2024/05/03 07:17:50;;;;;;;8.15;5.80;;;14.10;99.90;;;;;;5369268;26;20023;-82
2024/05/03 07:20:35;;;;;;;9.48;6.40;;;14.10;99.90;;;;;;5349181;26;20050;-79
2024/05/03 07:23:23;;;;;;;9.48;6.25;;;14.10;99.90;;;;;;5363449;26;20019;-80
2024/05/03 07:26:10;;;;;;;8.85;6.30;;;14.00;99.90;;;;;;5350098;26;20016;-81
2024/05/03 07:29:01;;;;;;;8.95;6.18;;;14.10;99.90;;;;;;5341746;26;20020;-80
2024/05/03 07:31:48;;;;;;;10.18;6.50;;;14.10;99.90;;;;;;5354316;26;20374;-81
2024/05/03 07:34:34;;;;;;;10.00;7.75;;;14.10;99.90;;;;;;5356340;26;20076;-80
2024/05/03 07:37:18;;;;;;;10.85;7.72;;;14.10;99.90;;;;;;5356325;26;20789;-80
2024/05/03 07:40:04;;;;;;;11.85;8.13;;;14.10;99.90;;;;;;5363073;26;20015;-81
2024/05/03 07:42:49;;;;;;;11.27;7.65;;;14.10;99.90;;;;;;5366924;26;20047;-77
2024/05/03 07:45:37;;;;;;;12.35;8.75;;;14.10;99.90;;;;;;5351845;26;20396;-77
2024/05/03 07:48:22;;;;;;;11.30;8.23;;;14.10;99.90;;;;;;5354755;26;20027;-76
2024/05/03 07:51:07;;;;;;;12.88;8.68;;;14.10;99.90;;;;;;5359580;26;20023;-78
2024/05/03 07:53:51;;;;;;;13.15;8.95;;;14.20;99.90;;;;;;5361776;26;20036;-78
2024/05/03 07:56:36;;;;;;;12.82;9.00;;;14.20;99.90;;;;;;5360421;26;20023;-78
2024/05/03 07:59:21;;;;;;;13.30;8.95;;;14.20;99.90;;;;;;5361258;26;20083;-78
2024/05/03 08:02:09;;;;;;;11.40;8.82;;;14.20;99.90;;;;;;5347364;26;20020;-82
2024/05/03 08:04:54;;;;;;;12.70;8.52;;;14.20;99.90;;;;;;5385994;26;20381;-81
2024/05/03 08:07:39;;;;;;;17.95;9.02;;;14.20;99.90;;;;;;5365183;26;20023;-82
2024/05/03 08:10:24;;;;;;;11.18;8.25;;;14.20;99.90;;;;;;5365307;26;20014;-81
2024/05/03 08:13:09;;;;;;;13.23;8.93;;;14.20;99.90;;;;;;5360771;26;20329;-81
2024/05/03 08:15:56;;;;;;;12.75;8.68;;;14.10;99.90;;;;;;5361462;26;20756;-82
2024/05/03 08:18:44;;;;;;;12.02;8.30;;;14.10;99.90;;;;;;5355545;26;20810;-81
2024/05/03 08:21:32;;;;;;;11.32;8.48;;;14.00;99.90;;;;;;5367037;26;20077;-82
2024/05/03 08:24:17;;;;;;;12.50;8.45;;;14.10;99.90;;;;;;5348982;26;20019;-80
2024/05/03 08:27:02;;;;;;;12.43;8.70;;;14.10;99.90;;;;;;5363293;26;20083;-80
2024/05/03 08:29:48;;;;;;;10.88;7.75;;;14.00;99.90;;;;;;5362214;26;20683;-80
2024/05/03 08:32:32;;;;;;;12.82;8.10;;;14.00;99.90;;;;;;5360978;26;20019;-80
2024/05/03 08:35:20;;;;;;;11.43;7.78;;;14.00;99.90;;;;;;5351721;26;20015;-80
2024/05/03 08:38:05;;;;;;;10.73;7.43;;;14.00;99.90;;;;;;5370258;26;20074;-80
2024/05/03 08:40:50;;;;;;;10.27;7.50;;;14.00;99.90;;;;;;5360704;26;20045;-80
2024/05/03 08:43:42;;;;;;;11.95;8.13;;;13.90;99.90;;;;;;5367241;26;20015;-80
2024/05/03 08:46:28;;;;;;;10.65;8.00;;;13.90;99.90;;;;;;5355802;26;20019;-80
2024/05/03 08:49:17;;;;;;;11.23;8.45;;;13.90;99.90;;;;;;5357869;26;20022;-82
2024/05/03 08:52:12;;;;;;;12.98;8.68;;;13.90;99.90;;;;;;5363144;26;20078;-81
2024/05/03 08:54:58;;;;;;;13.70;8.87;;;13.90;99.90;;;;;;5366906;26;20015;-84
2024/05/03 08:57:47;;;;;;;10.68;7.97;;;13.80;99.90;;;;;;5362706;26;20059;-84
2024/05/03 09:00:33;;;;;;;11.52;8.82;;;13.80;99.90;;;;;;5364000;26;20082;-83
2024/05/03 09:03:21;;;;;;;11.40;8.88;;;13.80;99.90;;;;;;5361502;26;20016;-83
2024/05/03 09:06:08;;;;;;;15.23;9.48;;;13.80;99.90;;;;;;5355875;26;20019;-82
2024/05/03 09:08:57;;;;;;;15.32;10.05;;;13.80;99.90;;;;;;5354911;26;20046;-84
2024/05/03 09:11:42;;;;;;;14.98;10.45;;;13.80;99.90;;;;;;5357448;26;20019;-81
2024/05/03 09:14:27;;;;;;;15.15;11.13;;;13.70;99.90;;;;;;5372834;26;20078;-81
2024/05/03 09:17:12;;;;;;;17.13;10.88;;;13.70;99.90;;;;;;5367226;26;20499;-80
2024/05/03 09:19:58;;;;;;;15.15;10.60;;;13.60;99.90;;;;;;5375269;26;20079;-80
2024/05/03 09:22:44;;;;;;;15.50;11.23;;;13.50;99.90;;;;;;5350056;26;20357;-81
2024/05/03 09:25:32;;;;;;;16.77;11.30;;;13.40;99.90;;;;;;5367365;26;20530;-81
2024/05/03 09:28:17;;;;;;;14.63;11.32;;;13.30;99.90;;;;;;5361043;26;20010;-81
2024/05/03 09:31:03;;;;;;;15.40;11.70;;;13.30;99.90;;;;;;5366325;26;20045;-82
2024/05/03 09:33:50;;;;;;;17.10;12.32;;;13.40;99.90;;;;;;5351134;26;20358;-81
2024/05/03 09:36:35;;;;;;;14.07;10.52;;;13.40;99.90;;;;;;5366674;26;20022;-82
2024/05/03 09:39:20;;;;;;;15.52;9.30;;;13.40;99.90;;;;;;5361687;26;20656;-80
2024/05/03 09:42:08;;;;;;;12.57;9.40;;;13.50;99.90;;;;;;5360506;26;20019;-80
2024/05/03 09:44:53;;;;;;;12.02;9.15;;;13.50;99.90;;;;;;5362852;26;20099;-80
2024/05/03 09:47:41;;;;;;;10.75;8.52;;;13.50;99.90;;;;;;5354501;26;20068;-80
2024/05/03 09:50:26;;;;;;;9.68;7.57;;;13.60;99.90;;;;;;5348928;26;20019;-81
2024/05/03 09:53:14;;;;;;;9.75;7.43;;;13.60;99.90;;;;;;5349705;26;20020;-79
2024/05/03 09:56:05;;;;;;;8.75;7.07;;;13.60;99.90;;;;;;5357378;26;20176;-79
2024/05/03 09:58:58;;;;;;;9.38;7.65;;;13.60;99.90;;;;;;5357653;26;20081;-80
2024/05/03 10:01:47;;;;;;;13.38;8.32;;;13.50;99.90;;;;;;5360819;26;20083;-80
2024/05/03 10:04:38;;;;;;;10.13;8.10;;;13.50;99.90;;;;;;5359909;26;20020;-81
2024/05/03 10:07:26;;;;;;;9.98;8.23;;;13.40;99.90;;;;;;5353677;26;20012;-79
2024/05/03 10:10:12;;;;;;;10.73;8.52;;;13.40;99.90;;;;;;5350770;26;20083;-80
2024/05/03 10:12:57;;;;;;;10.02;8.45;;;13.20;99.90;;;;;;5361579;26;20373;-80
2024/05/03 10:15:47;;;;;;;11.98;9.50;;;13.20;99.90;;;;;;5363984;26;20024;-80
2024/05/03 10:18:33;;;;;;;11.27;8.77;;;13.10;99.90;;;;;;5360005;26;20078;-79
2024/05/03 10:21:30;;;;;;;12.38;9.52;;;13.10;99.90;;;;;;5360061;26;20092;-80
2024/05/03 10:24:15;;;;;;;11.18;9.27;;;13.10;99.90;;;;;;5356106;26;20079;-81
2024/05/03 10:27:05;;;;;;;11.80;9.95;;;13.20;99.90;;;;;;5359680;26;20430;-80
2024/05/03 10:29:50;;;;;;;13.20;9.40;;;13.10;99.90;;;;;;5353596;26;20015;-81
2024/05/03 10:32:38;;;;;;;9.93;8.35;;;13.10;99.90;;;;;;5356750;26;20797;-80
2024/05/03 10:35:24;;;;;;;9.00;7.57;;;13.10;99.90;;;;;;5346533;26;20027;-81
2024/05/03 10:38:10;;;;;;;7.60;6.28;;;13.10;99.90;;;;;;5354716;26;20540;-79
2024/05/03 10:40:55;;;;;;;6.70;5.68;;;13.00;99.90;;;;;;5365726;26;20016;-79
2024/05/03 10:43:40;;;;;;;4.70;4.13;;;12.90;99.90;;;;;;5358646;26;20019;-79
2024/05/03 10:46:25;;;;;;;6.30;3.90;;;12.90;99.90;;;;;;5356396;26;20054;-80
2024/05/03 10:49:13;;;;;;;3.53;3.05;;;12.90;99.90;;;;;;5362700;26;20774;-79
2024/05/03 10:51:59;;;;;;;4.30;3.40;;;12.80;99.90;;;;;;5350496;26;20027;-82
2024/05/03 10:54:43;;;;;;;4.88;3.72;;;12.90;99.90;;;;;;5365508;26;20083;-82
2024/05/03 10:57:28;;;;;;;4.80;4.13;;;13.00;99.90;;;;;;5364801;26;20015;-81
2024/05/03 11:00:14;;;;;;;6.05;4.90;;;13.00;99.90;;;;;;5354565;26;20098;-84
2024/05/03 11:03:02;;;;;;;6.53;5.15;;;13.10;99.90;;;;;;5353788;26;20070;-85
2024/05/03 11:05:49;;;;;;;7.20;6.22;;;13.10;99.90;;;;;;5365379;26;20587;-85
2024/05/03 11:08:34;;;;;;;6.60;5.90;;;13.40;99.90;;;;;;5357855;26;20018;-84
2024/05/03 11:11:19;;;;;;;7.28;6.53;;;13.60;99.90;;;;;;5359467;26;20477;-84
2024/05/03 11:14:07;;;;;;;8.23;6.50;;;13.60;99.90;;;;;;5357649;26;20483;-83
2024/05/03 11:16:52;;;;;;;8.15;6.55;;;13.70;99.90;;;;;;5379482;26;20467;-83
2024/05/03 11:19:37;;;;;;;8.10;7.00;;;13.70;99.90;;;;;;5344531;26;20015;-82
2024/05/03 11:22:29;;;;;;;8.32;6.65;;;13.70;99.90;;;;;;5346536;26;20375;-80
2024/05/03 11:25:14;;;;;;;9.73;7.65;;;13.50;99.90;;;;;;5366103;26;20014;-80
2024/05/03 11:27:59;;;;;;;;;;;13.60;99.90;;;;;;5365209;26;20052;-85
2024/05/03 11:30:48;;;;;;;7.78;7.03;;;13.60;99.90;;;;;;5373519;26;19932;-80
2024/05/03 11:33:37;;;;;;;7.85;6.68;;;13.40;99.90;;;;;;5365144;26;20055;-82
2024/05/03 11:36:22;;;;;;;8.35;6.72;;;13.20;99.90;;;;;;5364793;26;20023;-80
2024/05/03 11:39:15;;;;;;;7.85;6.55;;;13.00;99.90;;;;;;5346588;26;20496;-80
2024/05/03 11:42:00;;;;;;;7.28;6.43;;;12.80;99.90;;;;;;5355502;26;20095;-83
2024/05/03 11:44:44;;;;;;;8.10;6.53;;;12.60;99.90;;;;;;5376794;26;20019;-83
2024/05/03 11:47:29;;;;;;;11.00;7.50;;;12.50;99.90;;;;;;5356090;26;20415;-80
2024/05/03 11:50:15;;;;;;;14.88;7.30;;;12.40;99.90;;;;;;5379912;26;20010;-82
2024/05/03 11:53:00;;;;;;;;;;;12.40;99.90;;;;;;5368527;26;20375;-86
2024/05/03 11:55:47;;;;;;;9.95;7.68;;;12.40;99.90;;;;;;5361162;26;20324;-80
2024/05/03 11:58:32;;;;;;;10.15;7.80;;;12.60;99.90;;;;;;5374884;26;20016;-81
2024/05/03 12:01:17;;;;;;;9.25;7.85;;;12.50;99.90;;;;;;5360014;26;20030;-82
2024/05/03 12:04:02;;;;;;;11.75;8.57;;;12.50;99.90;;;;;;5343765;26;20020;-83
2024/05/03 12:06:47;;;;;;;10.55;8.20;;;12.60;99.90;;;;;;5361156;26;20427;-81
2024/05/03 12:09:35;;;;;;;11.52;9.20;;;12.60;99.90;;;;;;5365516;26;20026;-82
2024/05/03 12:12:26;;;;;;;12.45;7.63;;;12.70;99.90;;;;;;5347495;26;20483;-83
2024/05/03 12:15:11;;;;;;;9.75;7.05;;;12.80;99.90;;;;;;5359958;26;20523;-80
2024/05/03 12:17:56;;;;;;;13.57;8.00;;;12.80;99.90;;;;;;5352711;26;20078;-81
2024/05/03 12:20:41;;;;;;;9.75;7.20;;;12.90;99.90;;;;;;5367705;26;20464;-82
2024/05/03 12:23:26;;;;;;;12.15;7.57;;;12.90;99.90;;;;;;5370344;26;20082;-81
2024/05/03 12:26:11;;;;;;;10.40;6.65;;;12.90;99.90;;;;;;5352831;26;20024;-78
2024/05/03 12:28:59;;;;;;;9.10;6.90;;;12.90;99.90;;;;;;5368069;26;20019;-84
2024/05/03 12:31:44;;;;;;;10.00;6.22;;;12.90;99.90;;;;;;5369272;26;20015;-80
2024/05/03 12:34:32;;;;;;;10.82;6.85;;;12.80;99.90;;;;;;5377390;26;20054;-86
2024/05/03 12:37:17;;;;;;;8.68;6.53;;;12.80;99.90;;;;;;5377561;26;20014;-78
2024/05/03 12:40:02;;;;;;;10.00;6.28;;;12.90;99.90;;;;;;5377893;26;20089;-78
2024/05/03 12:42:47;;;;;;;8.07;5.78;;;12.90;99.90;;;;;;5370912;26;20015;-80
2024/05/03 12:45:35;;;;;;;7.43;6.20;;;12.90;99.90;;;;;;5363130;26;20113;-79
2024/05/03 12:48:20;;;;;;;8.30;5.60;;;12.90;99.90;;;;;;5359264;26;20045;-82
2024/05/03 12:51:07;;;;;;;8.27;5.72;;;13.00;99.90;;;;;;5366540;26;20077;-85
2024/05/03 12:53:52;;;;;;;6.22;5.32;;;13.10;99.90;;;;;;5376055;26;20082;-83
2024/05/03 12:56:36;;;;;;;6.50;5.32;;;13.20;99.90;;;;;;5373813;26;20743;-84
2024/05/03 12:59:23;;;;;;;6.35;5.00;;;13.40;99.90;;;;;;5357430;26;20026;-82
2024/05/03 13:02:10;;;;;;;6.22;4.90;;;13.30;99.90;;;;;;5376314;26;20542;-80
2024/05/03 13:04:55;;;;;;;6.20;4.85;;;13.40;99.90;;;;;;5349803;26;20044;-80
2024/05/03 13:07:40;;;;;;;7.20;4.53;;;13.20;99.90;;;;;;5361372;26;20688;-80
2024/05/03 13:11:55;;;;;;;7.05;4.97;;;13.00;99.90;;;;;;5359467;26;20045;-79
2024/05/03 13:13:38;;;;;;;4.82;4.28;;;12.80;99.90;;;;;;5365280;26;20018;-83
2024/05/03 13:16:23;;;;;;;4.20;3.80;;;12.70;99.90;;;;;;5355883;26;20015;-84
2024/05/03 13:19:10;;;;;;;5.25;3.67;;;12.80;99.90;;;;;;5375120;26;20082;-86
2024/05/03 13:21:56;;;;;;;5.53;3.67;;;13.00;99.90;;;;;;5375384;26;20022;-83
2024/05/03 13:24:41;;;;;;;4.07;3.53;;;13.30;99.90;;;;;;5376946;26;20023;-82
2024/05/03 13:27:26;;;;;;;9.02;3.33;;;13.50;99.90;;;;;;5358703;26;20027;-83
2024/05/03 13:30:11;;;;;;;2.80;2.60;;;13.60;99.90;;;;;;5355581;26;20016;-81
2024/05/03 13:32:56;;;;;;;4.13;3.03;;;13.80;99.90;;;;;;5352006;26;20019;-84
2024/05/03 13:35:44;;;;;;;3.40;3.03;;;14.10;99.90;;;;;;5350239;26;20024;-84
2024/05/03 13:38:29;;;;;;;5.80;2.80;;;14.60;99.90;;;;;;5356041;26;20082;-83
2024/05/03 13:41:14;;;;;;;3.33;2.63;;;15.00;99.90;;;;;;5367785;26;20019;-83
2024/05/03 13:43:58;;;;;;;3.65;2.75;;;15.10;99.90;;;;;;5364082;26;20027;-81
2024/05/03 13:46:45;;;;;;;3.08;2.70;;;14.80;99.90;;;;;;5370317;26;20077;-82
2024/05/03 13:49:30;;;;;;;3.63;2.83;;;14.50;99.90;;;;;;5359965;26;20033;-80
2024/05/03 13:52:18;;;;;;;3.75;2.67;;;14.30;99.90;;;;;;5377287;26;20364;-82
2024/05/03 13:55:03;;;;;;;4.25;2.67;;;14.00;99.90;;;;;;5358559;26;20082;-82
2024/05/03 13:57:48;;;;;;;;;;;13.70;99.90;;;;;;5357251;26;20023;-81
2024/05/03 14:00:33;;;;;;;3.15;2.47;;;13.60;99.90;;;;;;5376032;26;20274;-80
2024/05/03 14:03:19;;;;;;;3.75;2.30;;;13.60;99.90;;;;;;5360297;26;20024;-79
2024/05/03 14:06:04;;;;;;;2.75;2.50;;;13.50;99.90;;;;;;5364755;26;20015;-77
2024/05/03 14:08:52;;;;;;;3.20;2.60;;;13.50;99.90;;;;;;5381684;26;20018;-78
2024/05/03 14:11:38;;;;;;;2.88;2.10;;;13.60;99.90;;;;;;5371857;26;20451;-81
2024/05/03 14:14:24;;;;;;;3.88;2.72;;;13.70;99.90;;;;;;5376866;26;20510;-82
2024/05/03 14:17:09;;;;;;;4.15;2.25;;;13.80;99.90;;;;;;5374195;26;20019;-80